Wetterdaten: Donnerstag, 07.01.2016
Datum Zeit Auen-Temp. Temp gefhlt Luftfeuchte Luftdruck Regen Wind Richtung Richtung Taupunkt Windben
07.01.2016 00:00 0,7 C 0,5 C 90 % 1003,0 hPa 0,0 mm 0,0 km/h (0 Bft) W-SW 247 -0,7 C 0,0 km/h (0 Bft)
07.01.2016 00:05 0,7 C 0,5 C 90 % 1003,0 hPa 0,0 mm 0,0 km/h (0 Bft) SW 225 -0,7 C 0,0 km/h (0 Bft)
07.01.2016 00:10 0,6 C 0,4 C 91 % 1003,0 hPa 0,0 mm 0,3 km/h (0 Bft) SW 225 -0,7 C 2,8 km/h (1 Bft)
07.01.2016 00:15 0,6 C 0,3 C 91 % 1003,1 hPa 0,0 mm 0,5 km/h (0 Bft) S 180 -0,7 C 0,0 km/h (0 Bft)
07.01.2016 00:20 0,6 C 0,4 C 91 % 1003,1 hPa 0,0 mm 0,5 km/h (0 Bft) S 180 -0,7 C 3,9 km/h (1 Bft)
07.01.2016 00:25 0,6 C 0,4 C 91 % 1003,1 hPa 0,0 mm 0,3 km/h (0 Bft) S 180 -0,7 C 0,0 km/h (0 Bft)
07.01.2016 00:30 0,5 C 0,3 C 91 % 1003,1 hPa 0,0 mm 0,0 km/h (0 Bft) W-SW 247 -0,8 C 0,0 km/h (0 Bft)
07.01.2016 00:35 0,6 C 0,4 C 91 % 1003,2 hPa 0,0 mm 0,3 km/h (0 Bft) S-SO 157 -0,7 C 0,0 km/h (0 Bft)
07.01.2016 00:40 0,6 C 0,4 C 91 % 1003,2 hPa 0,0 mm 2,3 km/h (1 Bft) W-SW 247 -0,7 C 10,1 km/h (2 Bft)
07.01.2016 00:45 0,7 C 0,5 C 91 % 1003,2 hPa 0,0 mm 3,1 km/h (1 Bft) W 270 -0,6 C 0,0 km/h (0 Bft)
07.01.2016 00:50 0,6 C 0,4 C 91 % 1003,2 hPa 0,0 mm 1,3 km/h (1 Bft) S 180 -0,7 C 0,0 km/h (0 Bft)
07.01.2016 00:55 0,6 C 0,4 C 91 % 1003,3 hPa 0,0 mm 0,0 km/h (0 Bft) S 180 -0,7 C 0,0 km/h (0 Bft)
07.01.2016 01:00 0,6 C 0,4 C 91 % 1003,3 hPa 0,0 mm 0,0 km/h (0 Bft) S 180 -0,7 C 0,0 km/h (0 Bft)
07.01.2016 01:05 0,7 C 0,5 C 92 % 1003,3 hPa 0,0 mm 0,0 km/h (0 Bft) S 180 -0,4 C 0,0 km/h (0 Bft)
07.01.2016 01:10 0,7 C 0,5 C 92 % 1003,3 hPa 0,0 mm 0,0 km/h (0 Bft) S 180 -0,4 C 0,0 km/h (0 Bft)
07.01.2016 01:15 0,7 C 0,5 C 92 % 1003,0 hPa 0,0 mm 0,0 km/h (0 Bft) S-SO 157 -0,4 C 0,0 km/h (0 Bft)
07.01.2016 01:20 0,6 C 0,3 C 92 % 1003,0 hPa 0,0 mm 0,0 km/h (0 Bft) S-SO 157 -0,5 C 0,0 km/h (0 Bft)
07.01.2016 01:25 0,6 C 0,3 C 92 % 1003,0 hPa 0,0 mm 0,0 km/h (0 Bft) S-SO 157 -0,5 C 0,0 km/h (0 Bft)
07.01.2016 01:30 0,6 C 0,3 C 92 % 1003,0 hPa 0,0 mm 0,0 km/h (0 Bft) S-SO 157 -0,5 C 0,0 km/h (0 Bft)
07.01.2016 01:35 0,6 C 0,3 C 92 % 1003,2 hPa 0,0 mm 0,0 km/h (0 Bft) S-SO 157 -0,5 C 0,0 km/h (0 Bft)
07.01.2016 01:40 0,6 C 0,3 C 92 % 1003,2 hPa 0,0 mm 0,0 km/h (0 Bft) S-SO 157 -0,5 C 0,0 km/h (0 Bft)
07.01.2016 01:45 0,6 C 0,3 C 92 % 1003,2 hPa 0,0 mm 0,0 km/h (0 Bft) S-SO 157 -0,5 C 0,0 km/h (0 Bft)
07.01.2016 01:50 0,4 C 0,2 C 92 % 1003,2 hPa 0,0 mm 0,3 km/h (0 Bft) NW 315 -0,7 C 0,0 km/h (0 Bft)
07.01.2016 01:55 0,4 C 0,2 C 92 % 1003,2 hPa 0,0 mm 0,3 km/h (0 Bft) NW 315 -0,7 C 0,0 km/h (0 Bft)
07.01.2016 02:00 0,4 C 0,2 C 92 % 1003,2 hPa 0,0 mm 0,0 km/h (0 Bft) S 180 -0,7 C 0,0 km/h (0 Bft)
07.01.2016 02:05 0,3 C 0,1 C 92 % 1003,2 hPa 0,0 mm 0,0 km/h (0 Bft) S 180 -0,8 C 0,0 km/h (0 Bft)
07.01.2016 02:10 0,4 C 0,1 C 92 % 1003,2 hPa 0,0 mm 0,0 km/h (0 Bft) S 180 -0,7 C 0,0 km/h (0 Bft)
07.01.2016 02:15 0,4 C 0,2 C 92 % 1003,0 hPa 0,0 mm 0,0 km/h (0 Bft) O-SO 112 -0,7 C 0,0 km/h (0 Bft)
07.01.2016 02:20 0,3 C 0,1 C 92 % 1003,0 hPa 0,0 mm 0,0 km/h (0 Bft) O-SO 112 -0,8 C 0,0 km/h (0 Bft)
07.01.2016 02:25 0,2 C 0,0 C 92 % 1003,0 hPa 0,0 mm 0,0 km/h (0 Bft) NW 315 -0,9 C 0,0 km/h (0 Bft)
07.01.2016 02:30 0,2 C 0,0 C 92 % 1003,0 hPa 0,0 mm 0,0 km/h (0 Bft) NW 315 -0,9 C 0,0 km/h (0 Bft)
07.01.2016 02:35 0,2 C 0,0 C 92 % 1003,3 hPa 0,0 mm 0,0 km/h (0 Bft) NW 315 -0,9 C 0,0 km/h (0 Bft)
07.01.2016 02:40 0,2 C 0,0 C 87 % 1003,3 hPa 0,0 mm 0,0 km/h (0 Bft) NW 315 -1,7 C 0,0 km/h (0 Bft)
07.01.2016 02:45 0,2 C 0,0 C 92 % 1003,3 hPa 0,0 mm 0,0 km/h (0 Bft) NW 315 -0,9 C 0,0 km/h (0 Bft)
07.01.2016 02:50 0,2 C 0,0 C 92 % 1003,3 hPa 0,0 mm 0,0 km/h (0 Bft) NW 315 -0,9 C 0,0 km/h (0 Bft)
07.01.2016 02:55 0,2 C 0,0 C 92 % 1003,2 hPa 0,0 mm 0,0 km/h (0 Bft) NW 315 -0,9 C 0,0 km/h (0 Bft)
07.01.2016 03:00 0,2 C 0,0 C 92 % 1003,2 hPa 0,0 mm 0,0 km/h (0 Bft) NW 315 -0,9 C 0,0 km/h (0 Bft)
07.01.2016 03:05 0,2 C 0,0 C 92 % 1003,2 hPa 0,0 mm 0,0 km/h (0 Bft) NW 315 -0,9 C 0,0 km/h (0 Bft)
07.01.2016 03:10 0,2 C 0,0 C 92 % 1003,2 hPa 0,0 mm 0,0 km/h (0 Bft) NW 315 -0,9 C 0,0 km/h (0 Bft)
07.01.2016 03:15 0,2 C 0,0 C 92 % 1003,2 hPa 0,0 mm 0,0 km/h (0 Bft) NW 315 -0,9 C 0,0 km/h (0 Bft)
07.01.2016 03:20 0,2 C 0,0 C 92 % 1003,2 hPa 0,0 mm 0,0 km/h (0 Bft) NW 315 -0,9 C 0,0 km/h (0 Bft)
07.01.2016 03:25 0,2 C 0,0 C 92 % 1003,2 hPa 0,0 mm 0,0 km/h (0 Bft) NW 315 -0,9 C 0,0 km/h (0 Bft)
07.01.2016 03:30 0,1 C 0,0 C 88 % 1003,2 hPa 0,0 mm 0,0 km/h (0 Bft) NW 315 -1,6 C 0,0 km/h (0 Bft)
07.01.2016 03:35 0,2 C 0,0 C 92 % 1003,5 hPa 0,0 mm 0,0 km/h (0 Bft) NW 315 -0,9 C 0,0 km/h (0 Bft)
07.01.2016 03:40 0,2 C 0,0 C 92 % 1003,5 hPa 0,0 mm 0,0 km/h (0 Bft) NW 315 -0,9 C 0,0 km/h (0 Bft)
07.01.2016 03:42 0,2 C 0,0 C 92 % 1003,5 hPa 0,0 mm 0,0 km/h (0 Bft) NW 315 -0,9 C 0,0 km/h (0 Bft)
07.01.2016 03:45 0,2 C 0,0 C 92 % 1003,5 hPa 0,0 mm 0,0 km/h (0 Bft) NW 315 -0,9 C 0,0 km/h (0 Bft)
07.01.2016 03:50 0,2 C 0,0 C 92 % 1003,5 hPa 0,0 mm 0,0 km/h (0 Bft) NW 315 -0,9 C 0,0 km/h (0 Bft)
07.01.2016 03:55 0,2 C 0,0 C 88 % 1003,3 hPa 0,0 mm 0,0 km/h (0 Bft) NW 315 -1,5 C 0,0 km/h (0 Bft)
07.01.2016 04:00 0,2 C 0,0 C 93 % 1003,3 hPa 0,0 mm 0,0 km/h (0 Bft) NW 315 -0,8 C 0,0 km/h (0 Bft)
07.01.2016 04:05 0,2 C 0,0 C 88 % 1003,3 hPa 0,0 mm 0,0 km/h (0 Bft) NW 315 -1,5 C 0,0 km/h (0 Bft)
07.01.2016 04:10 0,4 C 0,1 C 93 % 1003,3 hPa 0,0 mm 2,3 km/h (1 Bft) W-SW 247 -0,6 C 6,2 km/h (2 Bft)
07.01.2016 04:15 0,5 C 0,2 C 93 % 1003,3 hPa 0,0 mm 3,4 km/h (1 Bft) W 270 -0,5 C 0,0 km/h (0 Bft)
07.01.2016 04:20 0,5 C 0,3 C 93 % 1003,3 hPa 0,0 mm 3,4 km/h (1 Bft) S 180 -0,5 C 4,1 km/h (1 Bft)
07.01.2016 04:25 0,6 C 0,3 C 93 % 1003,3 hPa 0,0 mm 2,8 km/h (1 Bft) S 180 -0,4 C 2,8 km/h (1 Bft)
07.01.2016 04:30 0,6 C 0,3 C 93 % 1003,3 hPa 0,0 mm 2,6 km/h (1 Bft) S-SO 157 -0,4 C 0,0 km/h (0 Bft)
07.01.2016 04:35 0,5 C 0,3 C 93 % 1003,5 hPa 0,0 mm 1,6 km/h (1 Bft) S 180 -0,5 C 0,0 km/h (0 Bft)
07.01.2016 04:40 0,5 C 0,3 C 93 % 1003,5 hPa 0,0 mm 0,3 km/h (0 Bft) W-SW 247 -0,5 C 2,8 km/h (1 Bft)
07.01.2016 04:45 0,6 C 0,3 C 93 % 1003,5 hPa 0,0 mm 0,3 km/h (0 Bft) SO 135 -0,4 C 0,0 km/h (0 Bft)
07.01.2016 04:50 0,5 C 0,3 C 93 % 1003,5 hPa 0,0 mm 0,3 km/h (0 Bft) S 180 -0,5 C 0,0 km/h (0 Bft)
07.01.2016 04:55 0,5 C 0,3 C 93 % 1003,4 hPa 0,0 mm 0,3 km/h (0 Bft) S-SO 157 -0,5 C 0,0 km/h (0 Bft)
07.01.2016 05:00 0,5 C 0,2 C 93 % 1003,4 hPa 0,0 mm 0,3 km/h (0 Bft) S-SO 157 -0,5 C 0,0 km/h (0 Bft)
07.01.2016 05:05 0,5 C 0,2 C 93 % 1003,4 hPa 0,0 mm 0,0 km/h (0 Bft) S-SO 157 -0,5 C 0,0 km/h (0 Bft)
07.01.2016 05:10 0,3 C 0,1 C 93 % 1003,4 hPa 0,0 mm 0,0 km/h (0 Bft) N-NW 337 -0,7 C 0,0 km/h (0 Bft)
07.01.2016 05:15 0,2 C 0,0 C 93 % 1003,0 hPa 0,0 mm 0,0 km/h (0 Bft) N-NO 22 -0,8 C 0,0 km/h (0 Bft)
07.01.2016 05:20 0,2 C 0,0 C 88 % 1003,0 hPa 0,0 mm 0,0 km/h (0 Bft) N-NO 22 -1,5 C 0,0 km/h (0 Bft)
07.01.2016 05:25 0,2 C -0,1 C 93 % 1003,0 hPa 0,0 mm 0,0 km/h (0 Bft) N-NO 22 -0,8 C 0,0 km/h (0 Bft)
07.01.2016 05:30 0,2 C 0,0 C 88 % 1003,0 hPa 0,0 mm 0,0 km/h (0 Bft) NO 45 -1,5 C 0,0 km/h (0 Bft)
07.01.2016 05:35 0,1 C -0,1 C 93 % 1002,9 hPa 0,0 mm 0,0 km/h (0 Bft) NO 45 -0,9 C 0,0 km/h (0 Bft)
07.01.2016 05:40 0,2 C -0,1 C 93 % 1002,9 hPa 0,0 mm 0,0 km/h (0 Bft) NO 45 -0,8 C 0,0 km/h (0 Bft)
07.01.2016 05:45 0,1 C -0,2 C 93 % 1002,9 hPa 0,0 mm 0,0 km/h (0 Bft) NO 45 -0,9 C 0,0 km/h (0 Bft)
07.01.2016 05:50 0,0 C -0,3 C 93 % 1002,9 hPa 0,0 mm 0,3 km/h (0 Bft) NO 45 -1,0 C 0,0 km/h (0 Bft)
07.01.2016 05:55 0,0 C -0,3 C 93 % 1002,7 hPa 0,0 mm 0,3 km/h (0 Bft) NO 45 -1,0 C 0,0 km/h (0 Bft)
07.01.2016 06:00 0,0 C -0,3 C 93 % 1002,7 hPa 0,0 mm 0,0 km/h (0 Bft) NO 45 -1,0 C 0,0 km/h (0 Bft)
07.01.2016 06:05 0,0 C -0,3 C 93 % 1002,7 hPa 0,0 mm 0,0 km/h (0 Bft) NO 45 -1,0 C 0,0 km/h (0 Bft)
07.01.2016 06:10 -0,1 C -0,4 C 93 % 1002,7 hPa 0,0 mm 0,0 km/h (0 Bft) NO 45 -1,1 C 0,0 km/h (0 Bft)
07.01.2016 06:15 -0,1 C -0,4 C 93 % 1002,6 hPa 0,0 mm 0,0 km/h (0 Bft) NO 45 -1,1 C 0,0 km/h (0 Bft)
07.01.2016 06:20 -0,2 C -0,4 C 93 % 1002,6 hPa 0,0 mm 0,3 km/h (0 Bft) NO 45 -1,2 C 0,0 km/h (0 Bft)
07.01.2016 06:25 -0,2 C -0,5 C 93 % 1002,6 hPa 0,0 mm 0,3 km/h (0 Bft) NO 45 -1,2 C 0,0 km/h (0 Bft)
07.01.2016 06:30 -0,1 C -0,4 C 93 % 1002,6 hPa 0,0 mm 0,0 km/h (0 Bft) NO 45 -1,1 C 0,0 km/h (0 Bft)
07.01.2016 06:35 0,0 C -0,3 C 93 % 1002,5 hPa 0,0 mm 0,0 km/h (0 Bft) NO 45 -1,0 C 0,0 km/h (0 Bft)
07.01.2016 06:40 0,0 C -0,3 C 93 % 1002,5 hPa 0,0 mm 0,0 km/h (0 Bft) NO 45 -1,0 C 0,0 km/h (0 Bft)
07.01.2016 06:45 -0,1 C -0,4 C 93 % 1002,5 hPa 0,0 mm 0,0 km/h (0 Bft) NO 45 -1,1 C 0,0 km/h (0 Bft)
07.01.2016 06:50 -0,1 C -0,4 C 93 % 1002,5 hPa 0,0 mm 0,0 km/h (0 Bft) NO 45 -1,1 C 0,0 km/h (0 Bft)
07.01.2016 06:55 -0,1 C -0,4 C 93 % 1002,5 hPa 0,0 mm 0,0 km/h (0 Bft) NO 45 -1,1 C 0,0 km/h (0 Bft)
07.01.2016 07:00 -0,1 C -0,4 C 88 % 1002,5 hPa 0,0 mm 0,0 km/h (0 Bft) NO 45 -1,8 C 0,0 km/h (0 Bft)
07.01.2016 07:05 -0,2 C -0,5 C 93 % 1002,5 hPa 0,0 mm 0,0 km/h (0 Bft) NO 45 -1,2 C 0,0 km/h (0 Bft)
07.01.2016 07:10 -0,1 C -0,5 C 93 % 1002,5 hPa 0,0 mm 0,0 km/h (0 Bft) NO 45 -1,1 C 0,0 km/h (0 Bft)
07.01.2016 07:15 -0,3 C -0,6 C 93 % 1002,5 hPa 0,0 mm 0,0 km/h (0 Bft) NO 45 -1,3 C 0,0 km/h (0 Bft)
07.01.2016 07:20 -0,2 C -0,5 C 93 % 1002,5 hPa 0,0 mm 0,0 km/h (0 Bft) NO 45 -1,2 C 0,0 km/h (0 Bft)
07.01.2016 07:25 -0,3 C -0,6 C 93 % 1002,5 hPa 0,0 mm 0,0 km/h (0 Bft) NO 45 -1,3 C 0,0 km/h (0 Bft)
07.01.2016 07:30 -0,4 C -0,7 C 93 % 1002,5 hPa 0,0 mm 0,0 km/h (0 Bft) NO 45 -1,4 C 0,0 km/h (0 Bft)
07.01.2016 07:35 -0,5 C -0,8 C 93 % 1002,5 hPa 0,0 mm 0,0 km/h (0 Bft) NO 45 -1,5 C 0,0 km/h (0 Bft)
07.01.2016 07:40 -0,9 C -1,2 C 93 % 1002,5 hPa 0,0 mm 0,0 km/h (0 Bft) NO 45 -1,9 C 0,0 km/h (0 Bft)
07.01.2016 07:45 -1,1 C -1,4 C 93 % 1002,5 hPa 0,0 mm 0,0 km/h (0 Bft) NO 45 -2,1 C 0,0 km/h (0 Bft)
07.01.2016 07:50 -1,2 C -1,5 C 93 % 1002,5 hPa 0,0 mm 0,0 km/h (0 Bft) NO 45 -2,2 C 0,0 km/h (0 Bft)
07.01.2016 07:55 -0,9 C -1,3 C 93 % 1002,3 hPa 0,0 mm 0,0 km/h (0 Bft) NO 45 -1,9 C 0,0 km/h (0 Bft)
07.01.2016 08:00 -1,0 C -1,4 C 93 % 1002,3 hPa 0,0 mm 0,0 km/h (0 Bft) NO 45 -2,0 C 0,0 km/h (0 Bft)
07.01.2016 08:05 -0,9 C -1,3 C 93 % 1002,3 hPa 0,0 mm 0,0 km/h (0 Bft) NO 45 -1,9 C 0,0 km/h (0 Bft)
07.01.2016 08:10 -0,9 C -1,3 C 93 % 1002,3 hPa 0,0 mm 0,0 km/h (0 Bft) NO 45 -1,9 C 0,0 km/h (0 Bft)
07.01.2016 08:15 -1,0 C -1,4 C 93 % 1002,2 hPa 0,0 mm 0,0 km/h (0 Bft) NO 45 -2,0 C 0,0 km/h (0 Bft)
07.01.2016 08:20 -1,0 C -1,4 C 93 % 1002,2 hPa 0,0 mm 0,0 km/h (0 Bft) NO 45 -2,0 C 0,0 km/h (0 Bft)
07.01.2016 08:25 -1,1 C -1,5 C 93 % 1002,2 hPa 0,0 mm 0,0 km/h (0 Bft) NO 45 -2,1 C 0,0 km/h (0 Bft)
07.01.2016 08:30 -1,1 C -1,5 C 93 % 1002,2 hPa 0,0 mm 0,0 km/h (0 Bft) NO 45 -2,1 C 0,0 km/h (0 Bft)
07.01.2016 08:35 -1,4 C -1,7 C 93 % 1002,0 hPa 0,0 mm 0,0 km/h (0 Bft) NO 45 -2,4 C 0,0 km/h (0 Bft)
07.01.2016 08:40 -1,5 C -1,8 C 93 % 1002,0 hPa 0,0 mm 0,0 km/h (0 Bft) NO 45 -2,5 C 0,0 km/h (0 Bft)
07.01.2016 08:45 -1,4 C -1,8 C 93 % 1002,0 hPa 0,0 mm 0,0 km/h (0 Bft) NO 45 -2,4 C 0,0 km/h (0 Bft)
07.01.2016 08:50 -1,4 C -1,7 C 93 % 1002,0 hPa 0,0 mm 0,0 km/h (0 Bft) NO 45 -2,4 C 0,0 km/h (0 Bft)
07.01.2016 08:55 -1,4 C -1,7 C 93 % 1001,9 hPa 0,0 mm 0,0 km/h (0 Bft) NO 45 -2,4 C 0,0 km/h (0 Bft)
07.01.2016 09:00 -1,5 C -1,8 C 93 % 1001,9 hPa 0,0 mm 0,0 km/h (0 Bft) NO 45 -2,5 C 0,0 km/h (0 Bft)
07.01.2016 09:05 -1,4 C -1,8 C 93 % 1001,9 hPa 0,0 mm 0,0 km/h (0 Bft) NO 45 -2,4 C 0,0 km/h (0 Bft)
07.01.2016 09:10 -1,4 C -1,8 C 93 % 1001,9 hPa 0,0 mm 0,0 km/h (0 Bft) NO 45 -2,4 C 0,0 km/h (0 Bft)
07.01.2016 09:15 -1,2 C -1,5 C 88 % 1002,0 hPa 0,0 mm 0,0 km/h (0 Bft) NO 45 -2,9 C 0,0 km/h (0 Bft)
07.01.2016 09:20 -1,1 C -1,6 C 93 % 1002,0 hPa 0,0 mm 0,0 km/h (0 Bft) NO 45 -2,1 C 0,0 km/h (0 Bft)
07.01.2016 09:25 -1,2 C -1,5 C 88 % 1002,0 hPa 0,0 mm 0,0 km/h (0 Bft) NO 45 -2,9 C 0,0 km/h (0 Bft)
07.01.2016 09:30 -1,1 C -1,4 C 88 % 1002,0 hPa 0,0 mm 0,3 km/h (0 Bft) NO 45 -2,8 C 0,0 km/h (0 Bft)
07.01.2016 09:35 -1,1 C -1,5 C 93 % 1001,5 hPa 0,0 mm 0,3 km/h (0 Bft) NO 45 -2,1 C 0,0 km/h (0 Bft)
07.01.2016 09:40 -1,3 C -1,6 C 93 % 1001,5 hPa 0,0 mm 0,0 km/h (0 Bft) NO 45 -2,3 C 0,0 km/h (0 Bft)
07.01.2016 09:43 -1,3 C -1,6 C 93 % 1001,5 hPa 0,0 mm 0,0 km/h (0 Bft) NO 45 -2,3 C 0,0 km/h (0 Bft)
07.01.2016 09:45 -1,4 C -1,7 C 93 % 1001,5 hPa 0,0 mm 0,0 km/h (0 Bft) NO 45 -2,4 C 0,0 km/h (0 Bft)
07.01.2016 09:50 -1,3 C -1,6 C 93 % 1001,5 hPa 0,0 mm 0,0 km/h (0 Bft) NO 45 -2,3 C 0,0 km/h (0 Bft)
07.01.2016 09:55 -1,4 C -1,6 C 93 % 1001,3 hPa 0,0 mm 0,0 km/h (0 Bft) NO 45 -2,4 C 0,0 km/h (0 Bft)
07.01.2016 10:00 -1,3 C -1,5 C 93 % 1001,3 hPa 0,0 mm 0,0 km/h (0 Bft) NO 45 -2,3 C 0,0 km/h (0 Bft)
07.01.2016 10:05 -1,1 C -1,3 C 93 % 1001,3 hPa 0,0 mm 0,0 km/h (0 Bft) NO 45 -2,1 C 0,0 km/h (0 Bft)
07.01.2016 10:10 -1,0 C -1,2 C 93 % 1001,3 hPa 0,0 mm 0,0 km/h (0 Bft) NO 45 -2,0 C 0,0 km/h (0 Bft)
07.01.2016 10:15 -1,1 C -1,3 C 93 % 1001,0 hPa 0,0 mm 0,0 km/h (0 Bft) NO 45 -2,1 C 0,0 km/h (0 Bft)
07.01.2016 10:20 -0,8 C -0,9 C 88 % 1001,0 hPa 0,0 mm 0,0 km/h (0 Bft) NO 45 -2,5 C 0,0 km/h (0 Bft)
07.01.2016 10:25 -0,6 C -0,7 C 89 % 1001,0 hPa 0,0 mm 0,3 km/h (0 Bft) NO 45 -2,2 C 0,0 km/h (0 Bft)
07.01.2016 10:30 -0,5 C -0,7 C 93 % 1001,0 hPa 0,0 mm 0,3 km/h (0 Bft) NO 45 -1,5 C 0,0 km/h (0 Bft)
07.01.2016 10:35 -0,5 C -0,7 C 93 % 1001,0 hPa 0,0 mm 0,3 km/h (0 Bft) NO 45 -1,5 C 0,0 km/h (0 Bft)
07.01.2016 10:40 -0,2 C -0,5 C 94 % 1001,0 hPa 0,0 mm 0,0 km/h (0 Bft) NO 45 -1,0 C 0,0 km/h (0 Bft)
07.01.2016 10:45 -0,1 C -0,4 C 94 % 1001,0 hPa 0,0 mm 0,0 km/h (0 Bft) NO 45 -0,9 C 0,0 km/h (0 Bft)
07.01.2016 10:50 -0,1 C -0,4 C 89 % 1001,0 hPa 0,0 mm 0,0 km/h (0 Bft) NO 45 -1,7 C 0,0 km/h (0 Bft)
07.01.2016 10:55 -0,2 C -0,5 C 94 % 1000,5 hPa 0,0 mm 0,0 km/h (0 Bft) NO 45 -1,0 C 0,0 km/h (0 Bft)
07.01.2016 11:00 -0,5 C -0,7 C 94 % 1000,5 hPa 0,0 mm 0,0 km/h (0 Bft) NO 45 -1,3 C 0,0 km/h (0 Bft)
07.01.2016 11:05 -0,4 C -0,5 C 89 % 1000,5 hPa 0,0 mm 0,0 km/h (0 Bft) NO 45 -2,0 C 0,0 km/h (0 Bft)
07.01.2016 11:10 -0,2 C -0,4 C 89 % 1000,5 hPa 0,0 mm 0,0 km/h (0 Bft) NO 45 -1,8 C 0,0 km/h (0 Bft)
07.01.2016 11:15 -0,1 C -0,3 C 89 % 1000,1 hPa 0,0 mm 0,0 km/h (0 Bft) NO 45 -1,7 C 0,0 km/h (0 Bft)
07.01.2016 11:20 -0,1 C -0,2 C 89 % 1000,1 hPa 0,0 mm 0,0 km/h (0 Bft) NO 45 -1,7 C 0,0 km/h (0 Bft)
07.01.2016 11:25 -0,1 C -0,3 C 94 % 1000,1 hPa 0,0 mm 0,0 km/h (0 Bft) NO 45 -0,9 C 0,0 km/h (0 Bft)
07.01.2016 11:30 0,0 C -0,2 C 94 % 1000,1 hPa 0,0 mm 0,0 km/h (0 Bft) NO 45 -0,8 C 0,0 km/h (0 Bft)
07.01.2016 11:35 0,0 C -0,1 C 89 % 999,8 hPa 0,0 mm 0,5 km/h (0 Bft) NO 45 -1,6 C 2,8 km/h (1 Bft)
07.01.2016 11:40 0,2 C 0,1 C 89 % 999,8 hPa 0,0 mm 0,5 km/h (0 Bft) NO 45 -1,4 C 0,0 km/h (0 Bft)
07.01.2016 11:45 0,5 C 0,3 C 89 % 999,8 hPa 0,0 mm 0,3 km/h (0 Bft) NO 45 -1,1 C 0,0 km/h (0 Bft)
07.01.2016 11:50 0,5 C 0,4 C 89 % 999,8 hPa 0,0 mm 0,5 km/h (0 Bft) O-NO 67 -1,1 C 0,0 km/h (0 Bft)
07.01.2016 11:55 0,4 C 0,6 C 89 % 999,3 hPa 0,0 mm 0,3 km/h (0 Bft) O-NO 67 -1,2 C 0,0 km/h (0 Bft)
07.01.2016 12:00 0,8 C 0,9 C 89 % 999,3 hPa 0,0 mm 0,0 km/h (0 Bft) N-NO 22 -0,8 C 2,6 km/h (1 Bft)
07.01.2016 12:05 0,9 C 1,1 C 89 % 999,3 hPa 0,0 mm 0,3 km/h (0 Bft) NO 45 -0,7 C 0,0 km/h (0 Bft)
07.01.2016 12:10 0,9 C 1,4 C 89 % 999,3 hPa 0,0 mm 0,3 km/h (0 Bft) O-NO 67 -0,7 C 3,1 km/h (1 Bft)
07.01.2016 12:15 1,5 C 1,8 C 89 % 998,7 hPa 0,0 mm 0,0 km/h (0 Bft) O-SO 112 -0,1 C 0,0 km/h (0 Bft)
07.01.2016 12:20 1,7 C 2,3 C 89 % 998,7 hPa 0,0 mm 0,5 km/h (0 Bft) O-SO 112 0,1 C 0,0 km/h (0 Bft)
07.01.2016 12:25 1,8 C 2,5 C 89 % 998,7 hPa 0,0 mm 0,8 km/h (0 Bft) O 90 0,2 C 0,0 km/h (0 Bft)
07.01.2016 12:30 2,0 C 3,0 C 89 % 998,7 hPa 0,0 mm 1,0 km/h (0 Bft) O 90 0,4 C 0,0 km/h (0 Bft)
07.01.2016 12:35 2,1 C 3,1 C 89 % 997,8 hPa 0,0 mm 1,8 km/h (1 Bft) O-NO 67 0,5 C 3,9 km/h (1 Bft)
07.01.2016 12:40 2,3 C 3,2 C 89 % 997,8 hPa 0,0 mm 3,1 km/h (1 Bft) O-NO 67 0,7 C 7,0 km/h (2 Bft)
07.01.2016 12:45 2,5 C 3,2 C 89 % 997,8 hPa 0,0 mm 3,9 km/h (1 Bft) O-SO 112 0,9 C 2,8 km/h (1 Bft)
07.01.2016 12:50 2,7 C 3,5 C 89 % 997,8 hPa 0,0 mm 2,6 km/h (1 Bft) O 90 1,1 C 0,0 km/h (0 Bft)
07.01.2016 12:55 2,8 C 3,6 C 89 % 997,2 hPa 0,7 mm 2,8 km/h (1 Bft) O 90 1,2 C 6,7 km/h (2 Bft)
07.01.2016 13:00 2,8 C 3,4 C 89 % 997,2 hPa 0,0 mm 3,1 km/h (1 Bft) O-NO 67 1,2 C 11,1 km/h (2 Bft)
07.01.2016 13:05 2,8 C 3,5 C 88 % 997,2 hPa 0,0 mm 3,9 km/h (1 Bft) O-NO 67 1,0 C 8,5 km/h (2 Bft)
07.01.2016 13:10 2,9 C 3,6 C 88 % 997,2 hPa 0,0 mm 4,1 km/h (1 Bft) O-NO 67 1,1 C 3,6 km/h (1 Bft)
07.01.2016 13:15 2,9 C 3,7 C 88 % 997,0 hPa 0,0 mm 4,1 km/h (1 Bft) O-NO 67 1,1 C 0,0 km/h (0 Bft)
07.01.2016 13:20 2,9 C 3,7 C 88 % 997,0 hPa 0,0 mm 1,3 km/h (1 Bft) N-NO 22 1,1 C 0,0 km/h (0 Bft)
07.01.2016 13:25 2,8 C 3,7 C 88 % 997,0 hPa 0,0 mm 0,3 km/h (0 Bft) O-SO 112 1,0 C 0,0 km/h (0 Bft)
07.01.2016 13:30 2,7 C 3,6 C 88 % 997,0 hPa 0,0 mm 0,0 km/h (0 Bft) O-NO 67 0,9 C 0,0 km/h (0 Bft)
07.01.2016 13:35 2,7 C 3,6 C 88 % 996,5 hPa 0,0 mm 0,0 km/h (0 Bft) SO 135 0,9 C 0,0 km/h (0 Bft)
07.01.2016 13:38 2,7 C 3,6 C 88 % 996,5 hPa 0,0 mm 0,0 km/h (0 Bft) SO 135 0,9 C 0,0 km/h (0 Bft)
07.01.2016 13:40 2,6 C 3,7 C 88 % 996,5 hPa 0,0 mm 0,0 km/h (0 Bft) O-NO 67 0,8 C 0,0 km/h (0 Bft)
07.01.2016 13:45 2,7 C 3,7 C 88 % 996,5 hPa 0,0 mm 0,0 km/h (0 Bft) O-NO 67 0,9 C 0,0 km/h (0 Bft)
07.01.2016 13:50 2,6 C 3,5 C 88 % 996,5 hPa 0,0 mm 0,5 km/h (0 Bft) W-NW 292 0,8 C 2,6 km/h (1 Bft)
07.01.2016 13:55 2,5 C 3,4 C 88 % 996,4 hPa 0,0 mm 0,5 km/h (0 Bft) NW 315 0,7 C 0,0 km/h (0 Bft)
07.01.2016 14:00 2,5 C 3,2 C 87 % 996,4 hPa 0,0 mm 0,0 km/h (0 Bft) NW 315 0,6 C 0,0 km/h (0 Bft)
07.01.2016 14:05 2,5 C 3,1 C 87 % 996,4 hPa 0,0 mm 0,0 km/h (0 Bft) NW 315 0,6 C 0,0 km/h (0 Bft)
07.01.2016 14:10 2,6 C 3,0 C 87 % 996,4 hPa 0,0 mm 0,0 km/h (0 Bft) S-SO 157 0,7 C 0,0 km/h (0 Bft)
07.01.2016 14:15 2,5 C 2,9 C 89 % 996,5 hPa 0,0 mm 0,8 km/h (0 Bft) SW 225 0,9 C 4,7 km/h (1 Bft)
07.01.2016 14:20 2,1 C 2,6 C 87 % 996,5 hPa 0,0 mm 0,8 km/h (0 Bft) W-SW 247 0,2 C 0,0 km/h (0 Bft)
07.01.2016 14:25 2,1 C 2,4 C 87 % 996,5 hPa 0,0 mm 1,0 km/h (0 Bft) W-SW 247 0,2 C 5,4 km/h (1 Bft)
07.01.2016 14:30 2,2 C 2,4 C 87 % 996,5 hPa 0,0 mm 2,8 km/h (1 Bft) SW 225 0,3 C 6,2 km/h (2 Bft)
07.01.2016 14:35 2,3 C 2,4 C 87 % 997,1 hPa 0,0 mm 2,8 km/h (1 Bft) S 180 0,4 C 4,1 km/h (1 Bft)
07.01.2016 14:40 2,3 C 2,4 C 87 % 997,1 hPa 0,0 mm 3,9 km/h (1 Bft) SW 225 0,4 C 5,2 km/h (1 Bft)
07.01.2016 14:45 2,3 C 2,3 C 89 % 997,1 hPa 0,0 mm 4,4 km/h (1 Bft) SO 135 0,7 C 0,0 km/h (0 Bft)
07.01.2016 14:50 2,2 C 2,3 C 89 % 997,1 hPa 0,0 mm 3,1 km/h (1 Bft) W 270 0,6 C 6,0 km/h (2 Bft)
07.01.2016 14:55 2,2 C 2,2 C 89 % 997,3 hPa 0,0 mm 3,9 km/h (1 Bft) S-SW 202 0,6 C 11,1 km/h (2 Bft)
07.01.2016 15:00 2,2 C 2,0 C 89 % 997,3 hPa 0,0 mm 5,7 km/h (1 Bft) SW 225 0,6 C 9,3 km/h (2 Bft)
07.01.2016 15:05 2,1 C 2,0 C 89 % 997,3 hPa 0,0 mm 4,4 km/h (1 Bft) NW 315 0,5 C 3,1 km/h (1 Bft)
07.01.2016 15:10 2,1 C 2,0 C 89 % 997,3 hPa 0,0 mm 3,4 km/h (1 Bft) SW 225 0,5 C 15,0 km/h (3 Bft)
07.01.2016 15:15 2,1 C 2,0 C 89 % 998,0 hPa 0,0 mm 4,1 km/h (1 Bft) W-NW 292 0,5 C 9,8 km/h (2 Bft)
07.01.2016 15:20 2,1 C 1,8 C 89 % 998,0 hPa 0,0 mm 5,7 km/h (1 Bft) W-SW 247 0,5 C 8,8 km/h (2 Bft)
07.01.2016 15:25 2,2 C 2,0 C 89 % 998,0 hPa 0,0 mm 5,4 km/h (1 Bft) N-NO 22 0,6 C 7,5 km/h (2 Bft)
07.01.2016 15:30 2,2 C 2,1 C 89 % 998,0 hPa 0,0 mm 4,9 km/h (1 Bft) SW 225 0,6 C 3,9 km/h (1 Bft)
07.01.2016 15:35 2,2 C 2,1 C 88 % 998,4 hPa 0,0 mm 4,4 km/h (1 Bft) W-SW 247 0,4 C 3,6 km/h (1 Bft)
07.01.2016 15:40 2,0 C 1,9 C 88 % 998,4 hPa 0,0 mm 2,1 km/h (1 Bft) W-SW 247 0,2 C 0,0 km/h (0 Bft)
07.01.2016 15:43 1,9 C 1,8 C 89 % 998,4 hPa 0,0 mm 0,5 km/h (0 Bft) S 180 0,3 C 0,0 km/h (0 Bft)
07.01.2016 15:44 1,9 C 1,8 C 89 % 998,4 hPa 0,0 mm 0,5 km/h (0 Bft) S 180 0,3 C 0,0 km/h (0 Bft)
07.01.2016 15:45 1,9 C 1,8 C 89 % 998,4 hPa 0,0 mm 0,5 km/h (0 Bft) S 180 0,3 C 0,0 km/h (0 Bft)
07.01.2016 15:50 1,8 C 1,6 C 89 % 998,4 hPa 0,0 mm 0,0 km/h (0 Bft) S 180 0,2 C 0,0 km/h (0 Bft)
07.01.2016 15:55 1,7 C 1,5 C 89 % 998,6 hPa 0,0 mm 0,0 km/h (0 Bft) S 180 0,1 C 0,0 km/h (0 Bft)
07.01.2016 16:00 1,6 C 1,4 C 89 % 998,6 hPa 0,0 mm 0,0 km/h (0 Bft) S 180 -0,0 C 0,0 km/h (0 Bft)
07.01.2016 16:05 1,5 C 1,3 C 89 % 998,6 hPa 0,0 mm 0,0 km/h (0 Bft) O-SO 112 -0,1 C 0,0 km/h (0 Bft)
07.01.2016 16:10 1,4 C 1,2 C 90 % 998,6 hPa 0,0 mm 0,0 km/h (0 Bft) O 90 -0,1 C 0,0 km/h (0 Bft)
07.01.2016 16:15 1,3 C 1,1 C 90 % 998,3 hPa 0,0 mm 0,0 km/h (0 Bft) O-SO 112 -0,2 C 0,0 km/h (0 Bft)
07.01.2016 16:20 1,2 C 1,0 C 90 % 998,3 hPa 0,0 mm 0,0 km/h (0 Bft) O-SO 112 -0,3 C 0,0 km/h (0 Bft)
07.01.2016 16:25 1,2 C 1,0 C 90 % 998,3 hPa 0,0 mm 0,0 km/h (0 Bft) O-SO 112 -0,3 C 0,0 km/h (0 Bft)
07.01.2016 16:30 1,1 C 0,9 C 90 % 998,3 hPa 0,0 mm 0,0 km/h (0 Bft) SO 135 -0,4 C 0,0 km/h (0 Bft)
07.01.2016 16:35 1,0 C 0,8 C 90 % 998,3 hPa 0,0 mm 0,0 km/h (0 Bft) SO 135 -0,5 C 0,0 km/h (0 Bft)
07.01.2016 16:40 0,9 C 0,7 C 91 % 998,3 hPa 0,0 mm 0,0 km/h (0 Bft) O 90 -0,4 C 0,0 km/h (0 Bft)
07.01.2016 16:45 0,9 C 0,7 C 91 % 998,3 hPa 0,0 mm 0,0 km/h (0 Bft) SO 135 -0,4 C 0,0 km/h (0 Bft)
07.01.2016 16:50 0,8 C 0,6 C 91 % 998,3 hPa 0,0 mm 0,0 km/h (0 Bft) W-NW 292 -0,5 C 0,0 km/h (0 Bft)
07.01.2016 16:55 0,8 C 0,6 C 91 % 998,5 hPa 0,0 mm 0,0 km/h (0 Bft) W-NW 292 -0,5 C 0,0 km/h (0 Bft)
07.01.2016 17:00 0,7 C 0,5 C 91 % 998,5 hPa 0,0 mm 0,0 km/h (0 Bft) W-SW 247 -0,6 C 0,0 km/h (0 Bft)
07.01.2016 17:05 0,7 C 0,5 C 91 % 998,5 hPa 0,0 mm 0,0 km/h (0 Bft) NW 315 -0,6 C 0,0 km/h (0 Bft)
07.01.2016 17:10 0,5 C 0,2 C 91 % 998,5 hPa 0,0 mm 0,0 km/h (0 Bft) W-SW 247 -0,8 C 0,0 km/h (0 Bft)
07.01.2016 17:15 0,5 C 0,2 C 91 % 998,7 hPa 0,0 mm 0,0 km/h (0 Bft) NW 315 -0,8 C 0,0 km/h (0 Bft)
07.01.2016 17:20 0,4 C 0,2 C 91 % 998,7 hPa 0,0 mm 0,8 km/h (0 Bft) W 270 -0,9 C 0,0 km/h (0 Bft)
07.01.2016 17:25 0,4 C 0,2 C 91 % 998,7 hPa 0,0 mm 0,8 km/h (0 Bft) W-SW 247 -0,9 C 0,0 km/h (0 Bft)
07.01.2016 17:30 0,4 C 0,2 C 91 % 998,7 hPa 0,0 mm 1,3 km/h (1 Bft) W-SW 247 -0,9 C 0,0 km/h (0 Bft)
07.01.2016 17:35 0,4 C 0,2 C 91 % 998,8 hPa 0,0 mm 1,0 km/h (0 Bft) W-SW 247 -0,9 C 0,0 km/h (0 Bft)
07.01.2016 17:40 0,3 C 0,1 C 91 % 998,8 hPa 0,0 mm 0,3 km/h (0 Bft) W 270 -1,0 C 0,0 km/h (0 Bft)
07.01.2016 17:45 0,4 C 0,2 C 91 % 998,8 hPa 0,0 mm 1,0 km/h (0 Bft) W 270 -0,9 C 5,4 km/h (1 Bft)
07.01.2016 17:50 0,3 C 0,1 C 91 % 998,8 hPa 0,0 mm 0,8 km/h (0 Bft) W-SW 247 -1,0 C 0,0 km/h (0 Bft)
07.01.2016 17:55 0,3 C 0,1 C 91 % 999,2 hPa 0,0 mm 0,5 km/h (0 Bft) W 270 -1,0 C 0,0 km/h (0 Bft)
07.01.2016 18:00 0,3 C 0,1 C 92 % 999,2 hPa 0,0 mm 0,0 km/h (0 Bft) W-NW 292 -0,8 C 0,0 km/h (0 Bft)
07.01.2016 18:05 0,3 C 0,1 C 92 % 999,2 hPa 0,0 mm 0,0 km/h (0 Bft) W 270 -0,8 C 0,0 km/h (0 Bft)
07.01.2016 18:10 0,3 C 0,1 C 92 % 999,2 hPa 0,0 mm 0,5 km/h (0 Bft) W-SW 247 -0,8 C 3,4 km/h (1 Bft)
07.01.2016 18:15 0,4 C 0,2 C 92 % 999,4 hPa 0,0 mm 1,8 km/h (1 Bft) W-SW 247 -0,7 C 8,8 km/h (2 Bft)
07.01.2016 18:20 0,6 C 0,4 C 92 % 999,4 hPa 0,0 mm 3,4 km/h (1 Bft) W-SW 247 -0,5 C 8,0 km/h (2 Bft)
07.01.2016 18:25 0,9 C 0,4 C 92 % 999,4 hPa 0,0 mm 5,4 km/h (1 Bft) W-SW 247 -0,2 C 11,7 km/h (2 Bft)
07.01.2016 18:30 1,4 C 0,7 C 93 % 999,4 hPa 0,0 mm 7,3 km/h (2 Bft) W 270 0,4 C 18,6 km/h (3 Bft)
07.01.2016 18:35 1,7 C 1,0 C 88 % 999,8 hPa 0,0 mm 8,3 km/h (2 Bft) W-NW 292 -0,1 C 12,2 km/h (2 Bft)
07.01.2016 18:40 2,2 C 1,4 C 93 % 999,8 hPa 0,0 mm 10,4 km/h (2 Bft) NW 315 1,2 C 20,7 km/h (4 Bft)
07.01.2016 18:45 2,6 C 1,6 C 93 % 999,8 hPa 0,0 mm 11,7 km/h (2 Bft) W-SW 247 1,6 C 10,1 km/h (2 Bft)
07.01.2016 18:50 3,0 C 2,2 C 93 % 999,8 hPa 0,0 mm 13,5 km/h (3 Bft) W-SW 247 2,0 C 25,4 km/h (4 Bft)
07.01.2016 18:55 3,2 C 2,4 C 93 % 1000,3 hPa 0,0 mm 14,5 km/h (3 Bft) W 270 2,2 C 24,9 km/h (4 Bft)
07.01.2016 19:00 3,3 C 2,3 C 93 % 1000,3 hPa 0,0 mm 15,5 km/h (3 Bft) NW 315 2,3 C 37,3 km/h (5 Bft)
07.01.2016 19:05 3,3 C 2,6 C 93 % 1000,3 hPa 0,0 mm 15,3 km/h (3 Bft) W 270 2,3 C 20,7 km/h (4 Bft)
07.01.2016 19:10 3,4 C 2,7 C 93 % 1000,3 hPa 0,0 mm 14,8 km/h (3 Bft) W-SW 247 2,4 C 12,9 km/h (3 Bft)
07.01.2016 19:15 3,3 C 2,5 C 93 % 1000,7 hPa 0,0 mm 12,2 km/h (2 Bft) NW 315 2,3 C 22,0 km/h (4 Bft)
07.01.2016 19:20 3,2 C 2,7 C 93 % 1000,7 hPa 0,0 mm 9,1 km/h (2 Bft) W-SW 247 2,2 C 11,4 km/h (2 Bft)
07.01.2016 19:25 3,2 C 2,7 C 93 % 1000,7 hPa 0,0 mm 8,5 km/h (2 Bft) W 270 2,2 C 7,0 km/h (2 Bft)
07.01.2016 19:30 3,2 C 2,8 C 93 % 1000,7 hPa 0,0 mm 8,0 km/h (2 Bft) NW 315 2,2 C 12,7 km/h (3 Bft)
07.01.2016 19:35 3,3 C 2,8 C 93 % 1000,9 hPa 0,0 mm 8,0 km/h (2 Bft) W 270 2,3 C 9,3 km/h (2 Bft)
07.01.2016 19:40 3,3 C 2,8 C 93 % 1000,9 hPa 0,0 mm 8,8 km/h (2 Bft) SW 225 2,3 C 6,5 km/h (2 Bft)
07.01.2016 19:45 3,4 C 2,8 C 93 % 1000,9 hPa 0,0 mm 9,8 km/h (2 Bft) W-SW 247 2,4 C 20,2 km/h (4 Bft)
07.01.2016 19:50 3,6 C 2,8 C 93 % 1000,9 hPa 0,0 mm 11,1 km/h (2 Bft) W 270 2,6 C 11,4 km/h (2 Bft)
07.01.2016 19:55 3,6 C 3,0 C 93 % 1001,3 hPa 0,0 mm 12,4 km/h (3 Bft) W-NW 292 2,6 C 20,2 km/h (4 Bft)
07.01.2016 20:00 3,8 C 3,1 C 93 % 1001,3 hPa 0,0 mm 13,7 km/h (3 Bft) W 270 2,8 C 11,7 km/h (2 Bft)
07.01.2016 20:05 3,7 C 3,0 C 92 % 1001,3 hPa 0,0 mm 15,0 km/h (3 Bft) N 360 2,5 C 22,3 km/h (4 Bft)
07.01.2016 20:10 3,9 C 3,2 C 92 % 1001,3 hPa 0,0 mm 14,8 km/h (3 Bft) W 270 2,7 C 39,1 km/h (6 Bft)
07.01.2016 20:15 3,7 C 3,0 C 92 % 1001,5 hPa 0,0 mm 13,5 km/h (3 Bft) W 270 2,5 C 13,5 km/h (3 Bft)
07.01.2016 20:20 3,5 C 2,9 C 92 % 1001,5 hPa 0,0 mm 9,6 km/h (2 Bft) W 270 2,3 C 8,3 km/h (2 Bft)
07.01.2016 20:25 3,5 C 2,9 C 92 % 1001,5 hPa 0,0 mm 8,8 km/h (2 Bft) W 270 2,3 C 10,4 km/h (2 Bft)
07.01.2016 20:30 3,5 C 3,0 C 91 % 1001,5 hPa 0,0 mm 8,3 km/h (2 Bft) W 270 2,2 C 12,4 km/h (3 Bft)
07.01.2016 20:35 3,5 C 2,9 C 91 % 1001,6 hPa 0,0 mm 8,5 km/h (2 Bft) NW 315 2,2 C 13,2 km/h (3 Bft)
07.01.2016 20:40 3,6 C 3,0 C 91 % 1001,6 hPa 0,0 mm 9,1 km/h (2 Bft) SW 225 2,3 C 18,6 km/h (3 Bft)
07.01.2016 20:45 3,6 C 2,9 C 91 % 1001,6 hPa 0,0 mm 9,3 km/h (2 Bft) W-NW 292 2,3 C 9,8 km/h (2 Bft)
07.01.2016 20:50 3,6 C 2,8 C 91 % 1001,6 hPa 0,0 mm 9,8 km/h (2 Bft) W-SW 247 2,3 C 12,2 km/h (2 Bft)
07.01.2016 20:55 3,5 C 2,9 C 91 % 1001,5 hPa 0,0 mm 8,3 km/h (2 Bft) NW 315 2,2 C 14,0 km/h (3 Bft)
07.01.2016 21:00 3,5 C 2,9 C 90 % 1001,5 hPa 0,0 mm 7,8 km/h (2 Bft) W 270 2,0 C 5,2 km/h (1 Bft)
07.01.2016 21:05 3,5 C 2,9 C 90 % 1001,5 hPa 0,0 mm 8,3 km/h (2 Bft) W-SW 247 2,0 C 11,1 km/h (2 Bft)
07.01.2016 21:10 3,4 C 2,9 C 90 % 1001,5 hPa 0,0 mm 7,0 km/h (2 Bft) NW 315 1,9 C 9,3 km/h (2 Bft)
07.01.2016 21:15 3,5 C 2,9 C 90 % 1001,7 hPa 0,0 mm 7,8 km/h (2 Bft) W-SW 247 2,0 C 6,5 km/h (2 Bft)
07.01.2016 21:20 3,6 C 3,1 C 90 % 1001,7 hPa 0,0 mm 7,3 km/h (2 Bft) W-SW 247 2,1 C 7,8 km/h (2 Bft)
07.01.2016 21:25 3,7 C 3,2 C 90 % 1001,7 hPa 0,0 mm 6,7 km/h (2 Bft) W-NW 292 2,2 C 8,3 km/h (2 Bft)
07.01.2016 21:30 3,7 C 3,3 C 89 % 1001,7 hPa 0,0 mm 6,5 km/h (2 Bft) W-SW 247 2,1 C 12,9 km/h (3 Bft)
07.01.2016 21:35 3,7 C 3,3 C 89 % 1002,0 hPa 0,0 mm 6,0 km/h (2 Bft) W-NW 292 2,1 C 5,7 km/h (1 Bft)
07.01.2016 21:40 3,6 C 3,3 C 89 % 1002,0 hPa 0,0 mm 5,7 km/h (1 Bft) S 180 2,0 C 6,7 km/h (2 Bft)
07.01.2016 21:43 3,8 C 3,4 C 89 % 1002,0 hPa 0,0 mm 5,7 km/h (1 Bft) SW 225 2,2 C 4,7 km/h (1 Bft)
07.01.2016 21:45 3,8 C 3,4 C 89 % 1002,0 hPa 0,0 mm 5,7 km/h (1 Bft) SW 225 2,2 C 4,7 km/h (1 Bft)
07.01.2016 21:50 3,9 C 3,3 C 89 % 1002,0 hPa 0,0 mm 8,3 km/h (2 Bft) W-NW 292 2,3 C 9,3 km/h (2 Bft)
07.01.2016 21:55 4,0 C 3,1 C 89 % 1002,3 hPa 0,0 mm 10,9 km/h (2 Bft) W 270 2,4 C 21,0 km/h (4 Bft)
07.01.2016 22:00 4,1 C 3,4 C 89 % 1002,3 hPa 0,0 mm 14,2 km/h (3 Bft) W-NW 292 2,5 C 21,0 km/h (4 Bft)
07.01.2016 22:05 4,2 C 3,5 C 89 % 1002,3 hPa 0,0 mm 15,0 km/h (3 Bft) NW 315 2,6 C 16,6 km/h (3 Bft)
07.01.2016 22:10 4,1 C 3,4 C 89 % 1002,3 hPa 0,0 mm 14,2 km/h (3 Bft) W-NW 292 2,5 C 25,9 km/h (4 Bft)
07.01.2016 22:15 4,1 C 3,4 C 89 % 1002,8 hPa 0,0 mm 16,1 km/h (3 Bft) W-NW 292 2,5 C 19,9 km/h (4 Bft)
07.01.2016 22:20 4,0 C 3,3 C 88 % 1002,8 hPa 0,0 mm 15,5 km/h (3 Bft) W 270 2,2 C 13,7 km/h (3 Bft)
07.01.2016 22:25 3,9 C 3,2 C 89 % 1002,8 hPa 0,0 mm 14,5 km/h (3 Bft) W-NW 292 2,3 C 24,9 km/h (4 Bft)
07.01.2016 22:30 3,8 C 3,1 C 89 % 1002,8 hPa 0,0 mm 15,0 km/h (3 Bft) W-NW 292 2,2 C 28,5 km/h (4 Bft)
07.01.2016 22:35 3,8 C 2,9 C 88 % 1002,9 hPa 0,0 mm 20,2 km/h (4 Bft) W-NW 292 2,0 C 40,4 km/h (6 Bft)
07.01.2016 22:40 3,4 C 2,5 C 86 % 1002,9 hPa 0,0 mm 23,8 km/h (4 Bft) SW 225 1,3 C 52,6 km/h (7 Bft)
07.01.2016 22:45 3,4 C 2,3 C 86 % 1002,9 hPa 0,0 mm 21,8 km/h (4 Bft) SW 225 1,3 C 19,2 km/h (3 Bft)
07.01.2016 22:50 3,3 C 2,2 C 84 % 1002,9 hPa 0,0 mm 23,0 km/h (4 Bft) W 270 0,9 C 24,3 km/h (4 Bft)
07.01.2016 22:55 3,3 C 1,7 C 84 % 1003,2 hPa 0,0 mm 22,8 km/h (4 Bft) W-NW 292 0,9 C 39,9 km/h (6 Bft)
07.01.2016 23:00 3,2 C 2,1 C 83 % 1003,2 hPa 0,0 mm 21,2 km/h (4 Bft) W-SW 247 0,6 C 23,6 km/h (4 Bft)
07.01.2016 23:05 3,1 C 2,1 C 83 % 1003,2 hPa 0,0 mm 19,9 km/h (4 Bft) W 270 0,5 C 19,7 km/h (3 Bft)
07.01.2016 23:10 3,0 C 2,1 C 83 % 1003,2 hPa 0,0 mm 17,1 km/h (3 Bft) W-SW 247 0,4 C 26,2 km/h (4 Bft)
07.01.2016 23:15 2,9 C 2,1 C 82 % 1003,7 hPa 0,0 mm 16,8 km/h (3 Bft) NW 315 0,1 C 26,4 km/h (4 Bft)
07.01.2016 23:20 2,8 C 2,0 C 82 % 1003,7 hPa 0,0 mm 16,1 km/h (3 Bft) W 270 0,0 C 16,8 km/h (3 Bft)
07.01.2016 23:25 2,8 C 2,0 C 82 % 1003,7 hPa 0,0 mm 17,1 km/h (3 Bft) W-SW 247 0,0 C 16,8 km/h (3 Bft)
07.01.2016 23:30 2,7 C 2,0 C 82 % 1003,7 hPa 0,0 mm 16,1 km/h (3 Bft) W 270 -0,1 C 9,6 km/h (2 Bft)
07.01.2016 23:35 2,7 C 2,0 C 82 % 1004,4 hPa 0,0 mm 16,3 km/h (3 Bft) W-SW 247 -0,1 C 17,3 km/h (3 Bft)
07.01.2016 23:40 2,7 C 1,9 C 82 % 1004,4 hPa 0,0 mm 16,6 km/h (3 Bft) W 270 -0,1 C 23,6 km/h (4 Bft)
07.01.2016 23:45 2,6 C 1,9 C 82 % 1004,4 hPa 0,0 mm 16,1 km/h (3 Bft) W-SW 247 -0,2 C 15,8 km/h (3 Bft)
07.01.2016 23:50 2,5 C 1,8 C 83 % 1004,4 hPa 0,0 mm 16,1 km/h (3 Bft) N-NO 22 -0,1 C 19,9 km/h (4 Bft)
07.01.2016 23:55 2,4 C 1,7 C 83 % 1005,0 hPa 0,0 mm 14,5 km/h (3 Bft) W 270 -0,2 C 15,8 km/h (3 Bft)
_ Min-Zeit 09:00 09:10 23:45 14:10 - 18:05 - - 09:25 18:05
Minimum _ -1,5 C -1,8 C 82 % 996,4 hPa - 0,0 km/h (0 Bft) - - -2,9 C 0,0 km/h (0 Bft)
_ Max-Zeit 22:05 13:45 11:30 23:55 12:55 22:40 - - 20:00 22:40
Maximum _ 4,2 C 3,7 C 94 % 1005,0 hPa 0,7 mm 23,8 km/h
SW (4 Bft)
- - 2,8 C 52,6 km/h
SW (7 Bft)
Durchschnitt _ 1,2 C 0,9 C 91 % 1001,1 hPa #0,7 mm 3,4 km/h (1 Bft) W-SW - -0,2 C 4,8 km/h (1 Bft)